Time;durP1;ratioP1;P1;durP2;ratioP2;P2;SDS_P1;SDS_P2;PMS_P1;PMS_P2;Temp;Humidity;BMP_temperature;BMP_pressure;BME280_temperature;BME280_humidity;BME280_pressure;Samples;Min_cycle;Max_cycle;Signal;HPM_P1;HPM_P2
2021/01/22 00:01:43;;;;;;;1.17;0.80;;;7.90;99.90;;;;;;4997611;28;20139;-93
2021/01/22 00:04:09;;;;;;;0.70;0.60;;;7.90;99.90;;;;;;5015290;28;20073;-93
2021/01/22 00:06:36;;;;;;;1.95;0.70;;;7.90;99.90;;;;;;4998136;28;20132;-87
2021/01/22 00:09:03;;;;;;;0.95;0.65;;;7.90;99.90;;;;;;4998006;28;20123;-93
2021/01/22 00:11:29;;;;;;;0.75;0.63;;;7.90;99.90;;;;;;5014768;28;20088;-94
2021/01/22 00:13:55;;;;;;;0.40;0.40;;;7.80;99.90;;;;;;5001766;28;20070;-88
2021/01/22 00:16:21;;;;;;;1.00;0.70;;;7.80;99.90;;;;;;4999504;28;20137;-93
2021/01/22 00:18:48;;;;;;;0.52;0.47;;;7.70;99.90;;;;;;4996906;28;20048;-93
2021/01/22 00:21:14;;;;;;;0.85;0.52;;;7.60;99.90;;;;;;5014684;28;20054;-94
2021/01/22 00:23:40;;;;;;;1.85;0.50;;;7.60;99.90;;;;;;4997199;28;20097;-91
2021/01/22 00:26:06;;;;;;;1.50;0.55;;;7.60;99.90;;;;;;4997870;28;20413;-88
2021/01/22 00:28:34;;;;;;;0.75;0.50;;;7.70;99.90;;;;;;4996559;28;20104;-92
2021/01/22 00:31:01;;;;;;;1.10;0.57;;;7.70;99.90;;;;;;5014553;28;20061;-94
2021/01/22 00:33:27;;;;;;;0.35;0.35;;;7.70;99.90;;;;;;5014292;28;20088;-90
2021/01/22 00:35:53;;;;;;;0.60;0.60;;;7.70;99.90;;;;;;4996633;28;20053;-91
2021/01/22 00:38:20;;;;;;;0.35;0.35;;;7.60;99.90;;;;;;4996902;28;20042;-90
2021/01/22 00:40:46;;;;;;;0.68;0.68;;;7.60;99.90;;;;;;4995890;28;20112;-90
2021/01/22 00:43:12;;;;;;;1.35;0.50;;;7.60;99.90;;;;;;5013968;28;20070;-91
2021/01/22 00:45:39;;;;;;;0.57;0.57;;;7.50;99.90;;;;;;5013975;28;20396;-91
2021/01/22 00:48:06;;;;;;;0.70;0.70;;;7.40;99.90;;;;;;5013736;28;20050;-92
2021/01/22 00:50:32;;;;;;;1.05;0.70;;;7.30;99.90;;;;;;4996555;28;20056;-91
2021/01/22 00:52:59;;;;;;;1.10;1.00;;;7.20;99.90;;;;;;5013544;28;20053;-90
2021/01/22 00:55:27;;;;;;;2.78;1.30;;;7.20;99.90;;;;;;4996865;28;20132;-91
2021/01/22 00:57:53;;;;;;;1.08;0.75;;;7.10;99.90;;;;;;4996789;28;20061;-92
2021/01/22 01:00:20;;;;;;;2.15;1.15;;;7.00;99.90;;;;;;4996720;28;20084;-90
2021/01/22 01:02:46;;;;;;;1.23;1.13;;;6.90;99.90;;;;;;4999430;28;20054;-88
2021/01/22 01:05:12;;;;;;;1.60;1.15;;;6.80;99.90;;;;;;4996842;28;20050;-93
2021/01/22 01:07:39;;;;;;;1.55;1.40;;;6.80;99.90;;;;;;4996366;28;20069;-90
2021/01/22 01:10:06;;;;;;;2.22;1.38;;;6.80;99.90;;;;;;4996803;28;20046;-86
2021/01/22 01:12:34;;;;;;;1.30;1.30;;;6.70;99.90;;;;;;4996632;28;20042;-90
2021/01/22 01:15:03;;;;;;;1.40;1.30;;;6.70;99.90;;;;;;4996961;28;20141;-88
2021/01/22 01:17:29;;;;;;;1.70;1.35;;;6.80;99.90;;;;;;4996556;28;20077;-92
2021/01/22 01:19:56;;;;;;;1.35;1.27;;;6.80;99.90;;;;;;5014028;28;20054;-93
2021/01/22 01:22:22;;;;;;;1.40;1.30;;;6.70;99.90;;;;;;5013804;28;20472;-94
2021/01/22 01:24:48;;;;;;;1.45;1.35;;;6.70;99.90;;;;;;4996496;28;20120;-93
2021/01/22 01:27:14;;;;;;;1.70;1.60;;;6.80;99.90;;;;;;4996954;28;20121;-92
2021/01/22 01:29:40;;;;;;;1.48;1.10;;;6.70;99.90;;;;;;4997446;28;20409;-94
2021/01/22 01:32:06;;;;;;;1.50;1.40;;;6.70;99.90;;;;;;5006748;28;20085;-94
2021/01/22 01:34:33;;;;;;;1.75;1.40;;;6.60;99.90;;;;;;4996461;28;20050;-93
2021/01/22 01:36:59;;;;;;;1.48;1.35;;;6.70;99.90;;;;;;5013883;28;20570;-91
2021/01/22 01:39:26;;;;;;;1.77;1.50;;;6.80;99.90;;;;;;5013589;28;20081;-90
2021/01/22 01:41:52;;;;;;;1.35;1.10;;;6.80;99.90;;;;;;4996326;28;20049;-89
2021/01/22 01:44:19;;;;;;;1.83;1.40;;;6.90;99.90;;;;;;4996583;28;20108;-94
2021/01/22 01:46:45;;;;;;;1.20;1.20;;;6.90;99.90;;;;;;5013714;28;20128;-93
2021/01/22 01:49:12;;;;;;;1.52;1.40;;;6.80;99.90;;;;;;5013451;28;20054;-93
2021/01/22 01:51:39;;;;;;;1.20;1.10;;;6.80;99.90;;;;;;5014619;28;20045;-92
2021/01/22 01:54:05;;;;;;;1.70;1.23;;;6.60;99.90;;;;;;4999830;28;20138;-91
2021/01/22 01:56:32;;;;;;;1.40;1.30;;;6.60;99.90;;;;;;4999835;28;20486;-93
2021/01/22 01:58:59;;;;;;;1.40;1.30;;;6.40;99.90;;;;;;4999620;28;20084;-95
2021/01/22 02:01:27;;;;;;;2.60;1.35;;;6.20;99.90;;;;;;4999725;28;20482;-91
2021/01/22 02:03:56;;;;;;;1.58;1.48;;;6.10;99.90;;;;;;5016717;28;20081;-90
2021/01/22 02:06:22;;;;;;;1.30;1.30;;;6.10;99.90;;;;;;5016850;28;20461;-93
2021/01/22 02:08:49;;;;;;;2.17;1.40;;;6.20;99.90;;;;;;5016778;28;20135;-93
2021/01/22 02:11:16;;;;;;;1.23;1.13;;;6.30;99.90;;;;;;4999591;28;20134;-93
2021/01/22 02:13:44;;;;;;;2.05;1.90;;;6.30;99.90;;;;;;4999492;28;20104;-93
2021/01/22 02:16:11;;;;;;;3.55;1.27;;;6.40;99.90;;;;;;5016685;28;20107;-94
2021/01/22 02:18:40;;;;;;;1.48;1.38;;;6.40;99.90;;;;;;5016792;28;20092;-93
2021/01/22 02:21:21;;;;;;;1.95;1.50;;;6.40;99.90;;;;;;5016654;28;20514;-90
2021/01/22 02:23:48;;;;;;;2.10;1.52;;;6.40;99.90;;;;;;4995584;28;20054;-93
2021/01/22 02:26:28;;;;;;;1.55;1.05;;;6.50;99.90;;;;;;4996170;28;20160;-93
2021/01/22 02:28:58;;;;;;;1.30;1.20;;;6.60;99.90;;;;;;4995944;28;20055;-93
2021/01/22 02:31:26;;;;;;;1.30;1.20;;;6.70;99.90;;;;;;4995828;28;20074;-95
2021/01/22 02:33:58;;;;;;;1.10;1.10;;;6.60;99.90;;;;;;4996076;28;20578;-94
2021/01/22 02:36:26;;;;;;;1.05;1.00;;;6.80;99.90;;;;;;4996793;28;20074;-94
2021/01/22 02:38:54;;;;;;;0.80;0.80;;;6.90;99.90;;;;;;4996726;28;20222;-94
2021/01/22 02:41:21;;;;;;;1.15;0.90;;;7.00;99.90;;;;;;4996735;28;20140;-94
2021/01/22 02:43:50;;;;;;;1.92;1.08;;;7.00;99.90;;;;;;4997858;28;20053;-92
2021/01/22 02:46:17;;;;;;;1.05;0.88;;;7.10;99.90;;;;;;4996923;28;20475;-93
2021/01/22 02:48:45;;;;;;;0.98;0.80;;;7.10;99.90;;;;;;5002847;28;20046;-90
2021/01/22 02:51:12;;;;;;;1.05;1.00;;;7.10;99.90;;;;;;4996524;28;20090;-90
2021/01/22 02:53:38;;;;;;;0.65;0.65;;;7.10;99.90;;;;;;4995453;28;20639;-92
2021/01/22 02:56:13;;;;;;;1.02;0.90;;;7.00;99.90;;;;;;4995118;28;20061;-93
2021/01/22 02:59:08;;;;;;;0.90;0.90;;;6.90;99.90;;;;;;4996259;28;20089;-90
2021/01/22 03:01:46;;;;;;;2.22;0.80;;;6.80;99.90;;;;;;4996183;28;20050;-94
2021/01/22 03:04:14;;;;;;;1.02;0.77;;;6.90;99.90;;;;;;4995379;28;20057;-92
2021/01/22 03:06:44;;;;;;;1.00;0.90;;;7.00;99.90;;;;;;4995982;28;20046;-90
2021/01/22 03:09:17;;;;;;;0.85;0.85;;;7.00;99.90;;;;;;4995433;28;20050;-92
2021/01/22 03:11:47;;;;;;;0.60;0.60;;;6.90;99.90;;;;;;4996428;28;20046;-89
2021/01/22 03:14:14;;;;;;;0.73;0.70;;;6.90;99.90;;;;;;4996054;28;20047;-93
2021/01/22 03:16:40;;;;;;;1.35;0.82;;;7.00;99.90;;;;;;4994946;28;20476;-92
2021/01/22 03:19:07;;;;;;;2.08;1.00;;;7.00;99.90;;;;;;4995404;28;20133;-90
2021/01/22 03:21:33;;;;;;;0.80;0.80;;;6.90;99.90;;;;;;4995782;28;20137;-92
2021/01/22 03:24:00;;;;;;;0.63;0.60;;;6.90;99.90;;;;;;4998325;28;20057;-91
2021/01/22 03:26:27;;;;;;;0.82;0.80;;;6.80;99.90;;;;;;4998448;28;20133;-93
2021/01/22 03:28:53;;;;;;;0.70;0.70;;;6.90;99.90;;;;;;4997848;28;20046;-93
2021/01/22 03:31:19;;;;;;;0.73;0.63;;;6.90;99.90;;;;;;4998196;28;20069;-92
2021/01/22 03:33:46;;;;;;;0.60;0.60;;;6.90;99.90;;;;;;5015440;28;20081;-93
2021/01/22 03:36:12;;;;;;;0.50;0.50;;;7.00;99.90;;;;;;4998224;28;20053;-94
2021/01/22 03:38:38;;;;;;;0.50;0.50;;;7.10;99.90;;;;;;5014716;28;20050;-87
2021/01/22 03:41:05;;;;;;;0.65;0.57;;;7.20;99.90;;;;;;4998133;28;20562;-91
2021/01/22 03:43:31;;;;;;;0.80;0.70;;;7.30;99.90;;;;;;4997966;28;20076;-93
2021/01/22 03:45:57;;;;;;;0.98;0.98;;;7.40;99.90;;;;;;5015226;28;20050;-90
2021/01/22 03:48:25;;;;;;;0.40;0.40;;;7.50;99.90;;;;;;4997995;28;20111;-92
2021/01/22 03:50:51;;;;;;;1.20;0.68;;;7.50;99.90;;;;;;4998011;28;20062;-93
2021/01/22 03:53:17;;;;;;;0.38;0.38;;;7.60;99.90;;;;;;4998046;28;20069;-91
2021/01/22 03:55:52;;;;;;;0.57;0.57;;;7.70;99.90;;;;;;5021837;28;20052;-94
2021/01/22 03:58:18;;;;;;;0.60;0.60;;;7.80;99.90;;;;;;5012343;28;20081;-92
2021/01/22 04:00:45;;;;;;;0.90;0.70;;;7.70;99.90;;;;;;5028891;28;20058;-90
2021/01/22 04:03:11;;;;;;;0.55;0.55;;;7.70;99.90;;;;;;5029766;28;20069;-91
2021/01/22 04:05:38;;;;;;;0.77;0.70;;;7.50;99.90;;;;;;5013844;28;20057;-90
2021/01/22 04:08:06;;;;;;;1.08;0.77;;;7.30;99.90;;;;;;5011644;28;20052;-91
2021/01/22 04:10:32;;;;;;;0.50;0.50;;;7.10;99.90;;;;;;5006059;28;20081;-90
2021/01/22 04:12:59;;;;;;;0.90;0.73;;;7.00;99.90;;;;;;5015905;28;20133;-90
2021/01/22 04:15:25;;;;;;;1.10;0.77;;;6.90;99.90;;;;;;4999215;28;20050;-91
2021/01/22 04:17:51;;;;;;;0.70;0.70;;;6.90;99.90;;;;;;5016379;28;20052;-92
2021/01/22 04:20:21;;;;;;;1.50;0.80;;;6.70;99.90;;;;;;4998678;28;20061;-94
2021/01/22 04:22:49;;;;;;;1.05;0.90;;;6.70;99.90;;;;;;4998236;28;20117;-94
2021/01/22 04:25:15;;;;;;;4.75;1.08;;;6.60;99.90;;;;;;4998580;28;20133;-93
2021/01/22 04:27:42;;;;;;;1.75;0.90;;;6.50;99.90;;;;;;4999708;28;20058;-91
2021/01/22 04:30:09;;;;;;;0.75;0.60;;;6.70;99.90;;;;;;5017073;28;20049;-94
2021/01/22 04:32:35;;;;;;;3.42;0.90;;;6.80;99.90;;;;;;4999690;28;20046;-91
2021/01/22 04:35:02;;;;;;;2.58;0.60;;;6.90;99.90;;;;;;4998432;28;20108;-95
2021/01/22 04:37:28;;;;;;;0.57;0.57;;;6.90;99.90;;;;;;4997996;28;20053;-91
2021/01/22 04:39:55;;;;;;;1.67;0.60;;;7.00;99.90;;;;;;5013992;28;20144;-90
2021/01/22 04:42:21;;;;;;;10.38;3.72;;;7.10;99.90;;;;;;4997022;28;20498;-92
2021/01/22 04:44:48;;;;;;;0.85;0.68;;;7.30;99.90;;;;;;4998348;28;20064;-94
2021/01/22 04:47:16;;;;;;;3.60;1.17;;;7.40;99.90;;;;;;4996799;28;20092;-95
2021/01/22 04:49:44;;;;;;;2.60;1.20;;;7.60;99.90;;;;;;4998698;28;20050;-94
2021/01/22 04:52:11;;;;;;;2.20;0.50;;;7.60;99.90;;;;;;4998087;28;20070;-91
2021/01/22 04:54:43;;;;;;;3.30;1.10;;;7.70;99.90;;;;;;4997483;28;20050;-93
2021/01/22 04:57:11;;;;;;;1.33;0.57;;;7.70;99.90;;;;;;5014628;28;20514;-94
2021/01/22 04:59:42;;;;;;;0.45;0.45;;;7.70;99.90;;;;;;4996900;28;20050;-94
2021/01/22 05:02:09;;;;;;;2.58;0.50;;;7.60;99.90;;;;;;4996996;28;20108;-92
2021/01/22 05:04:38;;;;;;;0.73;0.68;;;7.80;99.90;;;;;;5014312;28;20144;-95
2021/01/22 05:07:07;;;;;;;1.20;0.57;;;7.90;99.90;;;;;;5014538;28;20077;-92
2021/01/22 05:09:33;;;;;;;1.02;0.50;;;7.90;99.90;;;;;;4997192;28;20050;-93
2021/01/22 05:12:01;;;;;;;0.88;0.50;;;8.00;99.90;;;;;;4997232;28;20061;-92
2021/01/22 05:14:28;;;;;;;4.90;0.57;;;7.90;99.90;;;;;;4996838;28;20103;-93
2021/01/22 05:17:10;;;;;;;0.63;0.40;;;7.70;99.90;;;;;;4997261;28;20149;-92
2021/01/22 05:19:38;;;;;;;2.65;0.60;;;7.70;99.90;;;;;;4997385;28;20050;-93
2021/01/22 05:22:06;;;;;;;2.30;0.50;;;7.70;99.90;;;;;;5001596;28;20064;-92
2021/01/22 05:24:35;;;;;;;0.80;0.52;;;7.70;99.90;;;;;;4997067;28;20093;-94
2021/01/22 05:27:12;;;;;;;1.35;0.52;;;7.80;99.90;;;;;;4998758;28;20065;-92
2021/01/22 05:29:44;;;;;;;0.50;0.50;;;8.00;99.90;;;;;;5001104;28;20474;-93
2021/01/22 05:32:24;;;;;;;1.45;0.60;;;8.10;99.90;;;;;;5000798;28;20085;-93
2021/01/22 05:34:52;;;;;;;2.40;0.40;;;8.10;99.90;;;;;;5000639;28;20141;-94
2021/01/22 05:37:19;;;;;;;0.60;0.50;;;8.20;99.90;;;;;;5017763;28;20149;-93
2021/01/22 05:40:06;;;;;;;1.52;0.50;;;8.20;99.90;;;;;;5017919;28;20137;-90
2021/01/22 05:42:46;;;;;;;0.65;0.35;;;8.40;99.90;;;;;;5000731;28;20096;-94
2021/01/22 05:45:14;;;;;;;0.82;0.45;;;8.60;99.90;;;;;;5000631;28;20080;-88
2021/01/22 05:47:40;;;;;;;1.00;0.50;;;8.60;99.90;;;;;;5019447;28;20455;-93
2021/01/22 05:50:08;;;;;;;1.33;0.65;;;8.70;99.90;;;;;;5000581;28;20042;-93
2021/01/22 05:52:34;;;;;;;0.98;0.60;;;8.80;99.90;;;;;;5017150;28;20140;-95
2021/01/22 05:55:18;;;;;;;1.73;0.60;;;8.80;99.90;;;;;;5017338;28;20049;-88
2021/01/22 05:57:44;;;;;;;;;;;8.70;99.90;;;;;;5001007;28;20082;-90
2021/01/22 06:00:12;;;;;;;4.57;0.77;;;8.60;99.90;;;;;;5017408;28;20344;-93
2021/01/22 06:02:39;;;;;;;1.65;0.60;;;8.60;99.90;;;;;;4999820;28;20482;-92
2021/01/22 06:05:13;;;;;;;1.48;0.82;;;8.60;99.90;;;;;;5016986;28;20060;-90
2021/01/22 06:07:42;;;;;;;3.40;0.85;;;8.60;99.90;;;;;;5000743;28;20050;-90
2021/01/22 06:10:14;;;;;;;2.13;0.70;;;8.70;99.90;;;;;;4999935;28;20046;-94
2021/01/22 06:12:48;;;;;;;5.03;0.60;;;8.70;99.90;;;;;;4999360;28;20100;-93
2021/01/22 06:15:19;;;;;;;1.70;0.50;;;8.70;99.90;;;;;;4999847;28;20486;-92
2021/01/22 06:17:50;;;;;;;1.95;0.68;;;8.80;99.90;;;;;;5018846;28;20053;-87
2021/01/22 06:20:22;;;;;;;1.88;0.60;;;8.80;99.90;;;;;;5003042;28;20056;-91
2021/01/22 06:23:14;;;;;;;1.45;0.68;;;8.80;99.90;;;;;;5017590;28;20140;-92
2021/01/22 06:25:46;;;;;;;3.50;0.82;;;8.80;99.90;;;;;;5017083;28;20137;-90
2021/01/22 06:28:13;;;;;;;3.40;0.85;;;8.70;99.90;;;;;;4999773;28;20046;-87
2021/01/22 06:30:42;;;;;;;3.03;0.70;;;8.80;99.90;;;;;;4998968;28;20087;-93
2021/01/22 06:33:09;;;;;;;1.55;0.55;;;8.90;99.90;;;;;;4999378;28;20129;-93
2021/01/22 06:35:37;;;;;;;1.27;0.63;;;8.80;99.90;;;;;;5016950;28;20076;-90
2021/01/22 06:38:06;;;;;;;3.03;0.80;;;8.70;99.90;;;;;;5018977;28;20467;-92
2021/01/22 06:40:33;;;;;;;2.92;0.55;;;8.50;99.90;;;;;;5018356;28;20049;-87
2021/01/22 06:43:01;;;;;;;3.67;0.70;;;8.40;99.90;;;;;;4999098;28;20050;-91
2021/01/22 06:45:29;;;;;;;1.23;0.50;;;8.20;99.90;;;;;;4999028;28;20406;-90
2021/01/22 06:47:57;;;;;;;2.05;0.55;;;8.10;99.90;;;;;;5017324;28;20118;-91
2021/01/22 06:50:24;;;;;;;2.88;0.70;;;8.10;99.90;;;;;;5000447;28;20050;-90
2021/01/22 06:53:07;;;;;;;1.80;0.80;;;8.00;99.90;;;;;;4998660;28;20554;-93
2021/01/22 06:55:54;;;;;;;2.20;0.82;;;8.00;99.90;;;;;;5016273;28;20073;-93
2021/01/22 06:58:31;;;;;;;2.90;0.80;;;8.00;99.90;;;;;;5000269;28;20056;-92
2021/01/22 07:01:02;;;;;;;4.35;0.90;;;8.00;99.90;;;;;;5000244;28;20088;-92
2021/01/22 07:03:34;;;;;;;2.70;0.80;;;7.90;99.90;;;;;;4999394;28;20100;-90
2021/01/22 07:06:02;;;;;;;2.25;0.95;;;7.90;99.90;;;;;;4998601;28;20125;-91
2021/01/22 07:08:49;;;;;;;4.05;0.85;;;7.90;99.90;;;;;;5016082;28;20081;-91
2021/01/22 07:11:16;;;;;;;1.38;0.85;;;7.90;99.90;;;;;;4998939;28;20072;-87
2021/01/22 07:13:45;;;;;;;0.43;0.40;;;7.80;99.90;;;;;;4998699;28;20125;-92
2021/01/22 07:16:18;;;;;;;2.42;1.00;;;7.90;99.90;;;;;;4998792;28;20565;-92
2021/01/22 07:18:54;;;;;;;3.78;1.17;;;7.90;99.90;;;;;;5015665;28;20069;-93
2021/01/22 07:21:38;;;;;;;2.47;1.10;;;8.00;99.90;;;;;;4997895;28;20133;-89
2021/01/22 07:24:18;;;;;;;3.22;0.93;;;8.10;99.90;;;;;;5015441;28;20077;-92
2021/01/22 07:26:46;;;;;;;1.58;0.70;;;8.10;99.90;;;;;;4998073;28;20050;-92
2021/01/22 07:29:24;;;;;;;1.63;0.70;;;8.10;99.90;;;;;;4999231;28;20421;-90
2021/01/22 07:32:04;;;;;;;2.92;0.98;;;8.20;99.90;;;;;;5015308;28;20060;-92
2021/01/22 07:34:37;;;;;;;4.85;0.85;;;8.30;99.90;;;;;;4998250;28;20057;-90
2021/01/22 07:37:04;;;;;;;2.60;0.70;;;8.40;99.90;;;;;;4997690;28;20057;-90
2021/01/22 07:39:31;;;;;;;5.93;0.98;;;8.50;99.90;;;;;;5014944;28;20046;-90
2021/01/22 07:42:13;;;;;;;1.15;0.70;;;8.50;99.90;;;;;;4998528;28;20058;-92
2021/01/22 07:44:41;;;;;;;2.58;0.52;;;8.60;99.90;;;;;;5015249;28;20581;-90
2021/01/22 07:47:09;;;;;;;1.02;0.57;;;8.60;99.90;;;;;;5000388;28;20107;-87
2021/01/22 07:49:51;;;;;;;4.00;0.88;;;8.60;99.90;;;;;;5017310;28;20054;-89
2021/01/22 07:52:17;;;;;;;2.25;0.60;;;8.60;99.90;;;;;;5023149;28;20041;-91
2021/01/22 07:54:44;;;;;;;4.43;0.70;;;8.40;99.90;;;;;;5011577;28;20053;-91
2021/01/22 07:57:19;;;;;;;4.57;1.00;;;8.30;99.90;;;;;;5014836;28;20464;-91
2021/01/22 07:59:47;;;;;;;4.38;1.25;;;8.30;99.90;;;;;;5017313;28;20124;-91
2021/01/22 08:02:14;;;;;;;5.38;0.95;;;8.20;99.90;;;;;;5016901;28;20084;-91
2021/01/22 08:04:41;;;;;;;3.65;1.15;;;8.10;99.90;;;;;;5017160;28;20486;-90
2021/01/22 08:07:07;;;;;;;2.17;0.80;;;8.00;99.90;;;;;;5034016;28;20124;-91
2021/01/22 08:09:33;;;;;;;2.88;0.93;;;7.90;99.90;;;;;;5034145;28;20105;-91
2021/01/22 08:12:11;;;;;;;1.73;0.68;;;7.90;99.90;;;;;;5017202;28;20057;-92
2021/01/22 08:14:38;;;;;;;6.45;0.80;;;7.90;99.90;;;;;;5034248;28;20095;-92
2021/01/22 08:17:05;;;;;;;3.95;1.15;;;7.90;99.90;;;;;;5016844;28;20045;-92
2021/01/22 08:19:34;;;;;;;1.50;0.75;;;7.80;99.90;;;;;;5034204;28;20158;-92
2021/01/22 08:22:02;;;;;;;2.42;1.02;;;7.80;99.90;;;;;;5033876;28;20075;-95
2021/01/22 08:24:28;;;;;;;5.07;1.10;;;7.80;99.90;;;;;;5035130;28;20049;-90
2021/01/22 08:27:00;;;;;;;6.40;1.50;;;7.80;99.90;;;;;;5033102;28;20045;-91
2021/01/22 08:29:34;;;;;;;3.83;1.10;;;7.80;99.90;;;;;;5006938;28;20115;-92
2021/01/22 08:32:02;;;;;;;2.22;1.08;;;7.80;99.90;;;;;;5017215;28;20050;-92
2021/01/22 08:34:29;;;;;;;2.30;0.77;;;7.70;99.90;;;;;;5013772;28;20096;-91
2021/01/22 08:36:59;;;;;;;1.50;0.88;;;7.70;99.90;;;;;;4999693;28;20053;-92
2021/01/22 08:39:25;;;;;;;1.77;0.80;;;7.80;99.90;;;;;;4996228;28;20133;-92
2021/01/22 08:41:51;;;;;;;3.45;0.85;;;7.80;99.90;;;;;;5013789;28;20053;-91
2021/01/22 08:44:27;;;;;;;3.08;0.90;;;7.80;99.90;;;;;;5013973;28;20054;-91
2021/01/22 08:46:54;;;;;;;2.53;1.00;;;7.90;99.90;;;;;;4996627;28;20088;-92
2021/01/22 08:49:21;;;;;;;4.32;1.02;;;7.90;99.90;;;;;;4996716;28;20134;-92
2021/01/22 08:51:47;;;;;;;3.63;1.17;;;8.00;99.90;;;;;;5014047;28;20068;-91
2021/01/22 08:54:14;;;;;;;4.43;0.80;;;8.00;99.90;;;;;;4997377;28;20053;-91
2021/01/22 08:56:40;;;;;;;2.05;0.75;;;8.00;99.90;;;;;;4997481;28;20557;-91
2021/01/22 08:59:12;;;;;;;2.08;0.77;;;8.10;99.90;;;;;;5013799;28;20136;-91
2021/01/22 09:01:56;;;;;;;3.15;0.85;;;8.10;99.90;;;;;;5015726;28;20054;-92
2021/01/22 09:04:24;;;;;;;2.80;0.85;;;8.10;99.90;;;;;;5002126;28;20053;-91
2021/01/22 09:07:04;;;;;;;2.65;1.00;;;8.10;99.90;;;;;;5001157;28;20390;-91
2021/01/22 09:09:49;;;;;;;3.70;0.98;;;8.10;99.90;;;;;;5022336;28;20049;-92
2021/01/22 09:12:27;;;;;;;2.10;0.75;;;8.10;99.90;;;;;;5046536;28;20049;-92
2021/01/22 09:15:07;;;;;;;4.35;1.30;;;8.10;99.90;;;;;;5038221;28;20451;-92
2021/01/22 09:17:39;;;;;;;17.15;3.08;;;8.10;99.90;;;;;;5037145;28;20063;-92
2021/01/22 09:20:19;;;;;;;2.40;0.90;;;8.20;99.90;;;;;;5020630;28;20124;-92
2021/01/22 09:22:48;;;;;;;2.35;0.77;;;8.30;99.90;;;;;;5037220;28;20115;-92
2021/01/22 09:25:18;;;;;;;5.15;1.10;;;8.40;99.90;;;;;;5020261;28;20046;-92
2021/01/22 09:27:46;;;;;;;3.05;1.27;;;8.50;99.90;;;;;;5052688;28;20452;-92
2021/01/22 09:30:18;;;;;;;2.03;0.88;;;8.70;99.90;;;;;;5020102;28;20096;-93
2021/01/22 09:32:46;;;;;;;3.58;0.98;;;9.00;99.90;;;;;;5037054;28;20076;-93
2021/01/22 09:35:13;;;;;;;2.00;0.82;;;9.40;99.90;;;;;;5020064;28;20053;-93
2021/01/22 09:37:39;;;;;;;1.75;0.80;;;9.60;99.90;;;;;;5037205;28;20165;-92
2021/01/22 09:40:06;;;;;;;3.58;0.90;;;9.50;99.90;;;;;;5019610;28;20087;-94
2021/01/22 09:42:34;;;;;;;5.55;1.20;;;9.40;99.90;;;;;;5037069;28;20553;-90
2021/01/22 09:45:00;;;;;;;3.30;1.38;;;9.10;99.90;;;;;;5019615;28;20107;-93
2021/01/22 09:47:27;;;;;;;1.75;0.93;;;8.80;99.90;;;;;;5014086;28;20052;-91
2021/01/22 09:49:53;;;;;;;1.95;0.90;;;8.60;99.90;;;;;;5025719;28;20095;-93
2021/01/22 09:52:20;;;;;;;2.25;1.10;;;8.50;99.90;;;;;;5007166;28;20053;-92
2021/01/22 09:54:47;;;;;;;2.38;0.95;;;8.50;99.90;;;;;;5010046;28;20152;-92
2021/01/22 09:57:14;;;;;;;2.38;0.77;;;8.50;99.90;;;;;;5024743;28;20053;-93
2021/01/22 09:59:41;;;;;;;1.73;1.17;;;8.60;99.90;;;;;;5008966;28;20131;-91
2021/01/22 10:02:08;;;;;;;4.55;1.15;;;8.80;99.90;;;;;;5000043;28;20054;-92
2021/01/22 10:04:35;;;;;;;2.88;0.90;;;8.80;99.90;;;;;;5018903;28;20059;-94
2021/01/22 10:07:04;;;;;;;3.53;1.23;;;8.70;99.90;;;;;;4999569;28;20494;-94
2021/01/22 10:09:30;;;;;;;3.30;1.20;;;8.80;99.90;;;;;;5000568;28;20592;-93
2021/01/22 10:11:57;;;;;;;1.42;1.00;;;8.70;99.90;;;;;;4999841;28;20045;-94
2021/01/22 10:14:23;;;;;;;2.17;1.25;;;8.80;99.90;;;;;;5004729;28;20523;-94
2021/01/22 10:16:50;;;;;;;3.53;1.50;;;9.00;99.90;;;;;;5016842;28;20080;-94
2021/01/22 10:19:16;;;;;;;3.80;1.40;;;9.20;99.90;;;;;;4999993;28;20406;-94
2021/01/22 10:21:43;;;;;;;3.03;1.10;;;9.30;99.90;;;;;;4999998;28;20054;-94
2021/01/22 10:24:10;;;;;;;3.67;1.50;;;9.40;99.90;;;;;;5000129;28;20610;-93
2021/01/22 10:26:36;;;;;;;3.10;0.85;;;9.50;99.90;;;;;;5002215;28;20080;-94
2021/01/22 10:29:02;;;;;;;2.92;1.13;;;9.70;99.90;;;;;;5023909;28;20081;-93
2021/01/22 10:31:29;;;;;;;3.65;1.00;;;9.90;99.90;;;;;;4999433;28;20467;-92
2021/01/22 10:33:55;;;;;;;2.45;0.82;;;10.00;99.90;;;;;;4999410;28;20045;-94
2021/01/22 10:36:22;;;;;;;2.95;1.13;;;10.50;99.90;;;;;;4999089;28;20049;-92
2021/01/22 10:38:48;;;;;;;1.00;0.60;;;10.80;99.90;;;;;;4999235;28;20060;-92
2021/01/22 10:41:15;;;;;;;3.65;1.02;;;11.10;99.90;;;;;;4999455;28;20169;-92
2021/01/22 10:43:41;;;;;;;2.78;0.70;;;11.50;99.90;;;;;;5001923;28;20131;-92
2021/01/22 10:46:07;;;;;;;1.30;0.95;;;12.10;99.90;;;;;;5016707;28;20093;-92
2021/01/22 10:48:33;;;;;;;5.38;0.90;;;12.40;99.90;;;;;;4999196;28;20050;-92
2021/01/22 10:51:00;;;;;;;4.88;0.90;;;12.60;99.90;;;;;;5016567;28;20392;-92
2021/01/22 10:53:27;;;;;;;2.08;0.80;;;12.60;99.90;;;;;;4999467;28;20188;-91
2021/01/22 10:55:53;;;;;;;5.53;1.55;;;12.70;99.90;;;;;;5016408;28;20137;-91
2021/01/22 10:58:20;;;;;;;2.05;1.00;;;12.60;99.90;;;;;;4999036;28;20153;-92
2021/01/22 11:00:47;;;;;;;4.25;0.90;;;12.50;99.90;;;;;;4999222;28;20132;-92
2021/01/22 11:03:13;;;;;;;2.38;0.90;;;12.40;99.90;;;;;;4998837;28;20104;-92
2021/01/22 11:05:39;;;;;;;2.20;0.88;;;12.30;99.90;;;;;;4998984;28;20077;-90
2021/01/22 11:08:05;;;;;;;1.33;0.90;;;12.10;99.90;;;;;;4999179;28;20092;-91
2021/01/22 11:10:32;;;;;;;2.63;1.05;;;12.00;99.90;;;;;;4998741;28;20089;-92
2021/01/22 11:12:58;;;;;;;1.20;0.80;;;11.80;99.90;;;;;;4998488;28;20041;-91
2021/01/22 11:15:24;;;;;;;2.50;0.85;;;11.60;99.90;;;;;;4998861;28;20042;-91
2021/01/22 11:17:51;;;;;;;1.45;0.80;;;11.40;99.90;;;;;;4998387;28;20049;-91
2021/01/22 11:20:18;;;;;;;3.35;0.73;;;11.20;99.90;;;;;;5015873;28;20054;-92
2021/01/22 11:22:46;;;;;;;4.18;0.90;;;10.80;99.90;;;;;;4998334;28;20058;-91
2021/01/22 11:25:17;;;;;;;1.52;0.85;;;10.40;99.90;;;;;;4997627;28;20395;-93
2021/01/22 11:27:43;;;;;;;0.68;0.68;;;10.10;99.90;;;;;;4995761;28;20140;-93
2021/01/22 11:30:10;;;;;;;1.95;1.15;;;9.70;99.90;;;;;;4999187;28;20391;-93
2021/01/22 11:32:37;;;;;;;6.70;2.10;;;8.90;99.90;;;;;;4998109;28;20057;-92
2021/01/22 11:35:08;;;;;;;0.68;0.60;;;8.20;99.90;;;;;;4998313;28;20050;-93
2021/01/22 11:37:39;;;;;;;5.75;4.07;;;7.70;99.90;;;;;;4999673;28;20152;-92
2021/01/22 11:40:07;;;;;;;1.15;1.15;;;7.50;99.90;;;;;;4998963;28;20510;-93
2021/01/22 11:42:34;;;;;;;0.95;0.95;;;7.30;99.90;;;;;;4999204;28;20072;-93
2021/01/22 11:45:02;;;;;;;0.70;0.70;;;7.00;99.90;;;;;;5022827;28;20088;-93
2021/01/22 11:47:28;;;;;;;1.90;1.80;;;6.90;99.90;;;;;;4998102;28;20046;-93
2021/01/22 11:49:55;;;;;;;1.52;1.42;;;6.70;99.90;;;;;;4998018;28;20050;-92
2021/01/22 11:52:21;;;;;;;2.50;1.88;;;6.60;99.90;;;;;;5014664;28;20088;-92
2021/01/22 11:54:47;;;;;;;3.13;3.03;;;6.40;99.90;;;;;;5016413;28;20144;-92
2021/01/22 11:57:14;;;;;;;1.67;1.58;;;6.30;99.90;;;;;;4997632;28;20152;-92
2021/01/22 11:59:41;;;;;;;0.50;0.50;;;6.20;99.90;;;;;;5014879;28;20054;-92
2021/01/22 12:02:07;;;;;;;1.33;0.93;;;6.20;99.90;;;;;;4997920;28;20137;-92
2021/01/22 12:04:34;;;;;;;0.50;0.50;;;6.20;99.90;;;;;;4997606;28;20402;-92
2021/01/22 12:07:01;;;;;;;7.53;4.22;;;6.20;99.90;;;;;;5014483;28;20100;-92
2021/01/22 12:09:27;;;;;;;24.48;11.75;;;6.10;99.90;;;;;;5014539;28;20141;-92
2021/01/22 12:11:54;;;;;;;41.72;15.48;;;6.00;99.90;;;;;;5014374;28;20048;-92
2021/01/22 12:14:20;;;;;;;9.27;6.32;;;6.00;99.90;;;;;;5001019;28;20077;-92
2021/01/22 12:16:46;;;;;;;76.95;43.80;;;6.00;99.90;;;;;;5014758;28;20053;-92
2021/01/22 12:19:13;;;;;;;44.45;30.95;;;5.90;99.90;;;;;;4997522;28;20379;-92
2021/01/22 12:21:39;;;;;;;70.88;47.03;;;5.90;99.90;;;;;;4996609;28;20050;-92
2021/01/22 12:24:06;;;;;;;6.82;4.90;;;5.80;99.90;;;;;;4997243;28;20056;-92
2021/01/22 12:26:32;;;;;;;83.30;49.55;;;5.80;99.90;;;;;;5014315;28;20058;-92
2021/01/22 12:28:59;;;;;;;86.13;47.03;;;5.80;99.90;;;;;;4997085;28;20041;-92
2021/01/22 12:31:25;;;;;;;103.57;62.25;;;5.70;99.90;;;;;;5014065;28;20136;-92
2021/01/22 12:33:52;;;;;;;65.60;37.50;;;5.70;99.90;;;;;;4997129;28;20061;-92
2021/01/22 12:36:18;;;;;;;1.17;1.13;;;5.70;99.90;;;;;;4996946;28;20137;-92
2021/01/22 12:38:45;;;;;;;59.40;29.35;;;5.80;99.90;;;;;;5013901;28;20085;-92
2021/01/22 12:41:11;;;;;;;87.35;42.70;;;5.70;99.90;;;;;;4997428;28;20518;-93
2021/01/22 12:43:38;;;;;;;291.63;148.00;;;5.60;99.90;;;;;;4997113;28;20062;-91
2021/01/22 12:46:04;;;;;;;2.17;2.08;;;5.60;99.90;;;;;;4997220;28;20471;-92
2021/01/22 12:48:31;;;;;;;1.25;0.73;;;5.60;99.90;;;;;;4996527;28;20422;-91
2021/01/22 12:50:57;;;;;;;297.45;124.25;;;5.60;99.90;;;;;;4996879;28;20132;-92
2021/01/22 12:53:23;;;;;;;7.47;4.85;;;5.60;99.90;;;;;;4997109;28;20490;-92
2021/01/22 12:55:50;;;;;;;23.17;10.73;;;5.60;99.90;;;;;;5014322;28;20046;-91
2021/01/22 12:58:16;;;;;;;6.80;3.00;;;5.60;99.90;;;;;;5014965;28;20133;-92
2021/01/22 13:00:42;;;;;;;6.47;4.43;;;5.70;99.90;;;;;;5003367;28;20046;-92
2021/01/22 13:03:10;;;;;;;5.25;4.13;;;5.70;99.90;;;;;;5014485;28;20069;-91